createdAt,value
2023-09-18T00:00:47.832Z,80.22
2023-09-18T00:01:47.780Z,81.54
2023-09-18T00:02:47.784Z,80.83
2023-09-18T00:03:47.742Z,80.93
2023-09-18T00:04:47.704Z,80.43
2023-09-18T00:05:47.692Z,81.07
2023-09-18T00:06:47.690Z,80.77
2023-09-18T00:07:47.658Z,80.57
2023-09-18T00:08:47.650Z,79.96
2023-09-18T00:09:47.641Z,79.66
2023-09-18T00:10:47.638Z,79.75
2023-09-18T00:11:47.595Z,80.66
2023-09-18T00:12:47.599Z,80.57
2023-09-18T00:13:47.581Z,80.16
2023-09-18T00:14:47.572Z,79.96
2023-09-18T00:15:47.616Z,79.25
2023-09-18T00:16:58.142Z,78.64
2023-09-18T00:17:48.680Z,79.46
2023-09-18T00:18:47.528Z,79.25
2023-09-18T00:19:47.510Z,80.46
2023-09-18T00:20:47.489Z,79.75
2023-09-18T00:21:47.480Z,81.68
2023-09-18T00:22:47.455Z,81.11
2023-09-18T00:23:47.432Z,79.69
2023-09-18T00:24:47.445Z,81.11
2023-09-18T00:25:47.426Z,81.71
2023-09-18T00:26:47.407Z,80.91
2023-09-18T00:27:47.401Z,81.41
2023-09-18T00:28:47.403Z,81.82
2023-09-18T00:29:47.366Z,82.73
2023-09-18T00:30:47.365Z,82.62
2023-09-18T00:31:47.401Z,82.12
2023-09-18T00:32:47.410Z,82.02
2023-09-18T00:33:47.319Z,82.02
2023-09-18T00:34:47.310Z,82.32
2023-09-18T00:35:47.323Z,82.83
2023-09-18T00:36:47.284Z,81.41
2023-09-18T00:37:47.257Z,80.40
2023-09-18T00:38:47.276Z,80.71
2023-09-18T00:39:47.231Z,80.50
2023-09-18T00:40:47.232Z,81.01
2023-09-18T00:41:47.208Z,81.92
2023-09-18T00:42:47.227Z,83.23
2023-09-18T00:43:47.202Z,83.03
2023-09-18T00:44:47.173Z,82.73
2023-09-18T00:45:47.203Z,82.16
2023-09-18T00:46:47.144Z,81.45
2023-09-18T00:47:47.208Z,82.46
2023-09-18T00:48:47.121Z,82.26
2023-09-18T00:49:47.106Z,81.55
2023-09-18T00:50:47.102Z,81.55
2023-09-18T00:51:47.081Z,80.64
2023-09-18T00:52:47.079Z,80.44
2023-09-18T00:53:47.063Z,81.45
2023-09-18T00:54:47.041Z,80.64
2023-09-18T00:55:47.017Z,81.09
2023-09-18T00:56:47.024Z,83.21
2023-09-18T00:57:47.022Z,84.02
2023-09-18T00:58:46.994Z,84.42
2023-09-18T00:59:46.978Z,83.41
2023-09-18T01:00:46.984Z,82.81
2023-09-18T01:01:46.963Z,81.90
2023-09-18T01:02:47.062Z,81.18
2023-09-18T01:03:47.091Z,80.27
2023-09-18T01:04:46.910Z,81.29
2023-09-18T01:05:46.984Z,80.88
2023-09-18T01:06:46.887Z,80.58
2023-09-18T01:07:46.858Z,80.68
2023-09-18T01:08:46.848Z,80.47
2023-09-18T01:09:46.847Z,81.39
2023-09-18T01:10:46.830Z,82.60
2023-09-18T01:11:46.802Z,82.20
2023-09-18T01:12:46.823Z,81.59
2023-09-18T01:13:46.775Z,81.83
2023-09-18T01:14:46.817Z,82.34
2023-09-18T01:15:46.797Z,81.12
2023-09-18T01:16:46.842Z,80.82
2023-09-18T01:17:46.788Z,81.73
2023-09-18T01:18:46.715Z,82.95
2023-09-18T01:19:46.728Z,83.65
2023-09-18T01:20:46.717Z,82.24
2023-09-18T01:21:46.675Z,83.65
2023-09-18T01:22:46.652Z,81.63
2023-09-18T01:23:46.646Z,80.41
2023-09-18T01:24:46.653Z,82.14
2023-09-18T01:25:46.613Z,83.15
2023-09-18T01:26:46.608Z,83.04
2023-09-18T01:27:46.625Z,81.93
2023-09-18T01:28:46.700Z,81.83
2023-09-18T01:29:46.582Z,82.24
2023-09-18T01:30:46.556Z,82.24
2023-09-18T01:31:46.539Z,81.63
2023-09-18T01:32:46.592Z,80.52
2023-09-18T01:33:46.517Z,80.52
2023-09-18T01:34:46.529Z,81.16
2023-09-18T01:35:46.502Z,80.55
2023-09-18T01:36:46.517Z,80.96
2023-09-18T01:37:46.507Z,81.26
2023-09-18T01:38:46.459Z,81.87
2023-09-18T01:39:46.441Z,82.07
2023-09-18T01:40:46.433Z,81.67
2023-09-18T01:41:46.415Z,81.57
2023-09-18T01:42:46.406Z,82.07
2023-09-18T01:43:46.394Z,82.07
2023-09-18T01:44:46.380Z,81.37
2023-09-18T01:45:46.358Z,81.06
2023-09-18T01:46:46.435Z,82.28
2023-09-18T01:47:46.409Z,82.28
2023-09-18T01:48:46.353Z,81.26
2023-09-18T01:49:46.309Z,80.76
2023-09-18T01:50:46.294Z,80.65
2023-09-18T01:51:46.269Z,81.77
2023-09-18T01:52:46.269Z,83.09
2023-09-18T01:53:46.252Z,82.98
2023-09-18T01:54:46.232Z,82.21
2023-09-18T01:55:46.232Z,82.21
2023-09-18T01:56:46.226Z,80.79
2023-09-18T01:57:46.212Z,80.49
2023-09-18T01:58:46.196Z,80.69
2023-09-18T01:59:46.182Z,82.01
2023-09-18T02:00:46.203Z,82.31
2023-09-18T02:01:46.143Z,82.52
2023-09-18T02:03:04.150Z,82.42
2023-09-18T02:03:53.096Z,82.31
2023-09-18T02:05:09.500Z,82.21
2023-09-18T02:05:47.268Z,83.43
2023-09-18T02:06:46.308Z,84.64
2023-09-18T02:07:46.075Z,84.55
2023-09-18T02:08:46.210Z,84.64
2023-09-18T02:09:46.045Z,83.53
2023-09-18T02:10:46.037Z,82.52
2023-09-18T02:11:46.013Z,82.52
2023-09-18T02:12:45.996Z,84.04
2023-09-18T02:13:45.997Z,85.56
2023-09-18T02:14:45.974Z,85.96
2023-09-18T02:15:45.970Z,85.66
2023-09-18T02:16:45.966Z,85.15
2023-09-18T02:17:46.047Z,85.66
2023-09-18T02:18:45.919Z,85.56
2023-09-18T02:19:45.905Z,85.19
2023-09-18T02:20:45.964Z,85.39
2023-09-18T02:21:45.883Z,83.67
2023-09-18T02:22:45.867Z,81.95
2023-09-18T02:23:45.849Z,81.64
2023-09-18T02:24:45.867Z,81.24
2023-09-18T02:25:45.838Z,81.74
2023-09-18T02:26:45.817Z,82.25
2023-09-18T02:27:45.828Z,82.66
2023-09-18T02:28:45.779Z,83.87
2023-09-18T02:29:45.787Z,85.09
2023-09-18T02:30:45.756Z,84.99
2023-09-18T02:31:45.810Z,84.89
2023-09-18T02:32:45.830Z,84.52
2023-09-18T02:33:45.782Z,83.20
2023-09-18T02:34:45.764Z,82.80
2023-09-18T02:35:45.692Z,82.90
2023-09-18T02:36:45.685Z,82.39
2023-09-18T02:37:45.651Z,81.38
2023-09-18T02:38:45.654Z,80.77
2023-09-18T02:39:45.649Z,82.50
2023-09-18T02:40:45.625Z,82.59
2023-09-18T02:41:45.600Z,82.19
2023-09-18T02:42:45.614Z,81.38
2023-09-18T02:43:45.575Z,81.88
2023-09-18T02:44:45.564Z,82.50
2023-09-18T02:45:45.567Z,83.20
2023-09-18T02:46:45.545Z,84.22
2023-09-18T02:47:45.640Z,83.81
2023-09-18T02:48:45.531Z,83.20
2023-09-18T02:49:45.492Z,82.33
2023-09-18T02:50:45.534Z,81.52
2023-09-18T02:51:45.477Z,80.80
2023-09-18T02:52:45.475Z,82.64
2023-09-18T02:53:45.444Z,81.62
2023-09-18T02:54:45.441Z,82.33
2023-09-18T02:55:45.420Z,81.92
2023-09-18T02:56:45.418Z,81.72
2023-09-18T02:57:45.398Z,80.91
2023-09-18T02:58:45.397Z,81.41
2023-09-18T02:59:45.371Z,81.41
2023-09-18T03:00:45.358Z,80.80
2023-09-18T03:01:45.361Z,80.19
2023-09-18T03:02:45.409Z,80.60
2023-09-18T03:03:45.415Z,80.19
2023-09-18T03:04:45.330Z,82.03
2023-09-18T03:05:45.349Z,81.01
2023-09-18T03:06:45.300Z,82.43
2023-09-18T03:07:45.254Z,84.05
2023-09-18T03:08:45.246Z,84.97
2023-09-18T03:09:45.222Z,83.24
2023-09-18T03:10:45.251Z,83.65
2023-09-18T03:11:45.205Z,83.34
2023-09-18T03:12:45.203Z,83.04
2023-09-18T03:13:45.181Z,81.52
2023-09-18T03:14:45.169Z,81.72
2023-09-18T03:15:45.275Z,82.33
2023-09-18T03:16:45.143Z,82.73
2023-09-18T03:17:45.151Z,82.64
2023-09-18T03:18:45.121Z,83.69
2023-09-18T03:19:45.101Z,83.08
2023-09-18T03:20:45.152Z,84.09
2023-09-18T03:21:45.059Z,84.30
2023-09-18T03:22:45.073Z,83.28
2023-09-18T03:23:45.040Z,82.87
2023-09-18T03:24:45.045Z,82.06
2023-09-18T03:25:49.629Z,81.76
2023-09-18T03:26:46.010Z,81.56
2023-09-18T03:27:44.990Z,81.86
2023-09-18T03:28:44.980Z,82.31
2023-09-18T03:29:45.009Z,81.90
2023-09-18T03:30:44.981Z,81.29
2023-09-18T03:31:44.977Z,81.29
2023-09-18T03:32:44.976Z,82.61
2023-09-18T03:33:44.923Z,82.00
2023-09-18T03:34:44.898Z,82.40
2023-09-18T03:35:44.869Z,82.40
2023-09-18T03:36:44.884Z,82.51
2023-09-18T03:37:44.861Z,82.71
2023-09-18T03:38:44.859Z,83.73
2023-09-18T03:39:44.827Z,82.92
2023-09-18T03:40:44.834Z,81.90
2023-09-18T03:41:44.805Z,82.71
2023-09-18T03:42:44.804Z,82.95
2023-09-18T03:43:44.798Z,82.31
2023-09-18T03:44:44.752Z,81.84
2023-09-18T03:45:44.803Z,83.76
2023-09-18T03:46:44.735Z,83.67
2023-09-18T03:47:44.826Z,84.48
2023-09-18T03:48:44.720Z,84.17
2023-09-18T03:49:44.693Z,84.99
2023-09-18T03:50:44.737Z,84.28
2023-09-18T03:51:44.675Z,84.58
2023-09-18T03:52:44.684Z,83.97
2023-09-18T03:53:44.761Z,83.06
2023-09-18T03:54:44.629Z,82.34
2023-09-18T03:55:44.610Z,84.07
2023-09-18T03:56:44.631Z,85.60
2023-09-18T03:57:44.621Z,85.19
2023-09-18T03:58:44.585Z,84.58
2023-09-18T03:59:44.567Z,84.78
2023-09-18T04:00:44.535Z,84.58
2023-09-18T04:01:44.572Z,86.00
2023-09-18T04:02:44.590Z,87.43
2023-09-18T04:03:44.658Z,87.32
2023-09-18T04:04:44.497Z,87.02
2023-09-18T04:05:44.557Z,86.92
2023-09-18T04:06:44.534Z,86.41
2023-09-18T04:07:45.168Z,86.21
2023-09-18T04:08:45.663Z,86.21
2023-09-18T04:09:44.424Z,86.10
2023-09-18T04:10:45.884Z,85.70
2023-09-18T04:11:47.223Z,85.90
2023-09-18T04:12:45.353Z,86.00
2023-09-18T04:13:45.760Z,86.31
2023-09-18T04:14:46.613Z,86.82
2023-09-18T04:15:45.202Z,85.53
2023-09-18T04:16:45.141Z,84.82
2023-09-18T04:17:45.907Z,85.13
2023-09-18T04:18:45.579Z,83.70
2023-09-18T04:19:46.558Z,82.89
2023-09-18T04:20:45.570Z,83.81
2023-09-18T04:21:46.896Z,84.72
2023-09-18T04:22:45.440Z,83.91
2023-09-18T04:23:46.200Z,83.70
2023-09-18T04:24:46.505Z,82.99
2023-09-18T04:25:44.965Z,82.38
2023-09-18T04:26:44.230Z,82.59
2023-09-18T04:27:44.221Z,82.28
2023-09-18T04:28:44.181Z,82.59
2023-09-18T04:29:44.187Z,84.11
2023-09-18T04:30:44.159Z,85.33
2023-09-18T04:31:44.139Z,84.66
2023-09-18T04:32:44.222Z,84.56
2023-09-18T04:33:44.270Z,84.35
2023-09-18T04:34:44.114Z,83.34
2023-09-18T04:35:44.150Z,82.82
2023-09-18T04:36:44.070Z,81.71
2023-09-18T04:37:44.054Z,81.60
2023-09-18T04:38:44.089Z,80.59
2023-09-18T04:39:44.040Z,82.73
2023-09-18T04:40:44.047Z,82.82
2023-09-18T04:41:44.011Z,82.01
2023-09-18T04:42:43.984Z,81.10
2023-09-18T04:43:43.991Z,80.38
2023-09-18T04:44:43.983Z,80.18
2023-09-18T04:45:44.300Z,80.90
2023-09-18T04:46:44.202Z,82.32
2023-09-18T04:47:44.088Z,82.62
2023-09-18T04:48:43.918Z,82.99
2023-09-18T04:49:43.893Z,84.11
2023-09-18T04:50:43.927Z,83.70
2023-09-18T04:51:43.865Z,84.42
2023-09-18T04:52:43.860Z,87.26
2023-09-18T04:53:43.962Z,88.28
2023-09-18T04:54:43.848Z,87.87
2023-09-18T04:55:43.837Z,87.06
2023-09-18T04:56:43.806Z,85.33
2023-09-18T04:57:43.842Z,84.82
2023-09-18T04:58:43.810Z,86.55
2023-09-18T04:59:43.842Z,85.74
2023-09-18T05:00:43.794Z,84.42
2023-09-18T05:01:43.732Z,83.70
2023-09-18T05:02:43.917Z,82.48
2023-09-18T05:03:44.109Z,81.91
2023-09-18T05:04:43.700Z,81.37
2023-09-18T05:05:43.727Z,83.60
2023-09-18T05:06:43.693Z,84.62
2023-09-18T05:07:43.662Z,84.52
2023-09-18T05:08:43.676Z,85.43
2023-09-18T05:09:43.627Z,86.35
2023-09-18T05:10:43.603Z,86.76
2023-09-18T05:11:43.749Z,86.25
2023-09-18T05:12:43.598Z,86.65
2023-09-18T05:13:43.565Z,86.55
2023-09-18T05:14:43.644Z,86.04
2023-09-18T05:15:43.581Z,85.03
2023-09-18T05:16:43.538Z,83.81
2023-09-18T05:17:43.707Z,82.85
2023-09-18T05:18:43.527Z,81.63
2023-09-18T05:19:43.515Z,81.02
2023-09-18T05:20:43.625Z,80.72
2023-09-18T05:21:43.470Z,79.90
2023-09-18T05:22:43.458Z,78.99
2023-09-18T05:23:43.545Z,78.68
2023-09-18T05:24:43.414Z,78.17
2023-09-18T05:25:43.421Z,78.58
2023-09-18T05:26:43.402Z,80.51
2023-09-18T05:27:43.408Z,81.02
2023-09-18T05:28:43.369Z,81.63
2023-09-18T05:29:43.461Z,81.59
2023-09-18T05:30:43.422Z,81.19
2023-09-18T05:31:43.332Z,80.78
2023-09-18T05:32:43.357Z,80.58
2023-09-18T05:33:43.324Z,80.58
2023-09-18T05:34:43.290Z,80.68
2023-09-18T05:35:43.424Z,81.49
2023-09-18T05:36:43.300Z,81.90
2023-09-18T05:37:43.326Z,83.18
2023-09-18T05:38:43.270Z,84.91
2023-09-18T05:39:43.267Z,86.13
2023-09-18T05:40:43.213Z,85.92
2023-09-18T05:41:43.280Z,85.01
2023-09-18T05:42:43.177Z,85.52
2023-09-18T05:43:43.335Z,85.62
2023-09-18T05:44:43.358Z,84.26
2023-09-18T05:45:43.180Z,82.33
2023-09-18T05:46:43.205Z,81.72
2023-09-18T05:47:43.235Z,80.80
2023-09-18T05:48:43.140Z,80.50
2023-09-18T05:49:43.088Z,79.18
2023-09-18T05:50:43.338Z,79.69
2023-09-18T05:51:43.084Z,78.57
2023-09-18T05:52:43.033Z,79.49
2023-09-18T05:53:43.086Z,78.17
2023-09-18T05:54:43.024Z,78.67
2023-09-18T05:55:43.019Z,78.03
2023-09-18T05:56:43.022Z,79.25
2023-09-18T05:57:43.051Z,80.66
2023-09-18T05:58:42.968Z,81.78
2023-09-18T05:59:42.983Z,81.58
2023-09-18T06:00:42.985Z,82.05
2023-09-18T06:01:42.923Z,81.64
2023-09-18T06:02:43.084Z,80.12
2023-09-18T06:03:43.000Z,80.53
2023-09-18T06:04:42.883Z,80.83
2023-09-18T06:05:42.878Z,81.24
2023-09-18T06:06:42.841Z,82.56
2023-09-18T06:07:42.859Z,83.53
2023-09-18T06:08:42.920Z,84.75
2023-09-18T06:09:42.823Z,85.56
2023-09-18T06:10:42.807Z,85.36
2023-09-18T06:11:42.881Z,85.66
2023-09-18T06:12:42.770Z,86.16
2023-09-18T06:13:42.778Z,84.55
2023-09-18T06:14:42.785Z,84.55
2023-09-18T06:15:42.738Z,83.39
2023-09-18T06:16:42.753Z,83.39
2023-09-18T06:17:42.804Z,82.98
2023-09-18T06:18:42.724Z,83.29
2023-09-18T06:19:42.695Z,83.49
2023-09-18T06:20:42.707Z,83.18
2023-09-18T06:21:42.668Z,82.48
2023-09-18T06:22:42.642Z,82.95
2023-09-18T06:23:42.662Z,83.65
2023-09-18T06:24:42.636Z,84.67
2023-09-18T06:25:42.599Z,85.13
2023-09-18T06:26:42.669Z,84.93
2023-09-18T06:27:42.594Z,84.79
2023-09-18T06:28:42.541Z,84.99
2023-09-18T06:29:42.601Z,85.25
2023-09-18T06:30:42.588Z,85.02
2023-09-18T06:31:42.532Z,84.43
2023-09-18T06:32:42.568Z,83.40
2023-09-18T06:33:42.490Z,81.07
2023-09-18T06:34:42.508Z,79.30
2023-09-18T06:35:42.500Z,77.32
2023-09-18T06:36:42.461Z,75.51
2023-09-18T06:37:42.461Z,74.30
2023-09-18T06:38:42.446Z,72.39
2023-09-18T06:39:42.464Z,70.99
2023-09-18T06:40:42.404Z,68.73
2023-09-18T06:41:42.407Z,68.33
2023-09-18T06:42:42.379Z,67.07
2023-09-18T06:43:42.373Z,65.25
2023-09-18T06:44:42.396Z,64.59
2023-09-18T06:45:42.342Z,62.91
2023-09-18T06:46:42.364Z,61.36
2023-09-18T06:47:42.390Z,60.11
2023-09-18T06:48:42.319Z,58.28
2023-09-18T06:49:42.294Z,57.33
2023-09-18T06:50:42.311Z,56.31
2023-09-18T06:51:43.865Z,56.38
2023-09-18T06:52:42.268Z,55.07
2023-09-18T06:53:42.291Z,53.86
2023-09-18T06:54:42.214Z,51.89
2023-09-18T06:55:42.227Z,53.47
2023-09-18T06:56:42.218Z,54.97
2023-09-18T06:57:42.308Z,54.21
2023-09-18T06:58:42.181Z,55.55
2023-09-18T06:59:42.205Z,55.87
2023-09-18T07:00:42.155Z,56.20
2023-09-18T07:01:42.304Z,56.23
2023-09-18T07:02:43.255Z,56.72
2023-09-18T07:03:42.244Z,56.52
2023-09-18T07:04:43.664Z,56.76
2023-09-18T07:05:42.122Z,55.47
2023-09-18T07:06:42.053Z,54.76
2023-09-18T07:07:42.067Z,54.44
2023-09-18T07:08:42.059Z,54.02
2023-09-18T07:09:51.492Z,52.04
2023-09-18T07:10:43.022Z,52.53
2023-09-18T07:11:41.997Z,53.59
2023-09-18T07:12:41.991Z,53.00
2023-09-18T07:13:41.964Z,52.68
2023-09-18T07:14:42.068Z,51.79
2023-09-18T07:15:41.933Z,51.37
2023-09-18T07:16:41.940Z,51.28
2023-09-18T07:17:41.980Z,51.54
2023-09-18T07:18:41.901Z,50.85
2023-09-18T07:19:41.923Z,51.25
2023-09-18T07:20:41.916Z,51.77
2023-09-18T07:21:41.871Z,52.09
2023-09-18T07:22:41.840Z,52.11
2023-09-18T07:23:42.112Z,52.63
2023-09-18T07:24:41.818Z,54.04
2023-09-18T07:25:41.818Z,54.19
2023-09-18T07:26:41.866Z,55.77
2023-09-18T07:27:41.790Z,54.22
2023-09-18T07:28:41.783Z,56.32
2023-09-18T07:29:41.792Z,54.67
2023-09-18T07:30:41.762Z,56.15
2023-09-18T07:31:41.788Z,55.88
2023-09-18T07:32:41.814Z,55.49
2023-09-18T07:33:41.797Z,56.87
2023-09-18T07:34:41.703Z,56.87
2023-09-18T07:35:41.732Z,57.69
2023-09-18T07:36:41.681Z,56.77
2023-09-18T07:37:41.643Z,57.17
2023-09-18T07:38:41.682Z,57.59
2023-09-18T07:39:41.785Z,57.79
2023-09-18T07:40:41.648Z,57.89
2023-09-18T07:41:41.663Z,58.39
2023-09-18T07:42:41.584Z,57.69
2023-09-18T07:43:41.590Z,57.00
2023-09-18T07:44:41.628Z,56.18
2023-09-18T07:45:41.629Z,56.85
2023-09-18T07:46:41.536Z,56.15
2023-09-18T07:47:41.675Z,56.15
2023-09-18T07:48:41.511Z,56.55
2023-09-18T07:49:41.518Z,58.16
2023-09-18T07:50:41.528Z,58.65
2023-09-18T07:51:41.488Z,59.08
2023-09-18T07:52:41.469Z,58.39
2023-09-18T07:53:41.533Z,59.21
2023-09-18T07:54:41.441Z,58.42
2023-09-18T07:55:41.420Z,59.44
2023-09-18T07:56:41.446Z,60.13
2023-09-18T07:57:41.395Z,60.03
2023-09-18T07:58:41.405Z,60.53
2023-09-18T07:59:41.360Z,61.62
2023-09-18T08:00:41.365Z,59.63
2023-09-18T08:01:41.340Z,59.93
2023-09-18T08:02:41.410Z,61.32
2023-09-18T08:03:41.399Z,60.03
2023-09-18T08:04:41.317Z,59.23
2023-09-18T08:05:41.305Z,60.63
2023-09-18T08:06:41.281Z,61.32
2023-09-18T08:07:41.279Z,58.94
2023-09-18T08:08:41.257Z,58.64
2023-09-18T08:09:41.255Z,59.93
2023-09-18T08:10:41.225Z,58.44
2023-09-18T08:11:41.238Z,58.94
2023-09-18T08:12:41.209Z,59.34
2023-09-18T08:13:41.184Z,59.23
2023-09-18T08:14:41.218Z,58.64
2023-09-18T08:15:41.216Z,58.34
2023-09-18T08:16:41.148Z,58.15
2023-09-18T08:17:41.226Z,58.32
2023-09-18T08:18:41.376Z,58.91
2023-09-18T08:19:41.117Z,58.81
2023-09-18T08:20:41.176Z,58.39
2023-09-18T08:21:41.103Z,57.17
2023-09-18T08:22:41.132Z,56.74
2023-09-18T08:23:41.144Z,56.13
2023-09-18T08:24:41.035Z,55.28
2023-09-18T08:25:41.037Z,53.67
2023-09-18T08:26:41.067Z,53.77
2023-09-18T08:27:41.003Z,54.73
2023-09-18T08:28:40.997Z,53.85
2023-09-18T08:29:40.986Z,52.95
2023-09-18T08:30:41.018Z,53.45
2023-09-18T08:31:41.003Z,53.52
2023-09-18T08:32:41.006Z,54.04
2023-09-18T08:33:40.910Z,53.85
2023-09-18T08:34:40.917Z,53.33
2023-09-18T08:35:41.103Z,53.27
2023-09-18T08:36:40.910Z,51.37
2023-09-18T08:37:40.873Z,50.49
2023-09-18T08:38:40.902Z,48.98
2023-09-18T08:39:40.840Z,49.97
2023-09-18T08:40:40.844Z,49.57
2023-09-18T08:41:40.832Z,49.16
2023-09-18T08:42:42.265Z,48.83
2023-09-18T08:43:40.806Z,48.44
2023-09-18T08:44:40.878Z,47.14
2023-09-18T08:45:40.801Z,48.25
2023-09-18T08:46:40.760Z,49.11
2023-09-18T08:47:40.777Z,49.70
2023-09-18T08:48:40.738Z,49.48
2023-09-18T08:49:40.738Z,47.91
2023-09-18T08:50:40.715Z,48.67
2023-09-18T08:51:40.670Z,47.88
2023-09-18T08:52:40.670Z,47.47
2023-09-18T08:53:40.660Z,47.15
2023-09-18T08:54:40.679Z,47.83
2023-09-18T08:55:40.633Z,48.69
2023-09-18T08:56:40.683Z,46.34
2023-09-18T08:57:40.647Z,47.20
2023-09-18T08:58:40.627Z,47.49
2023-09-18T08:59:40.660Z,47.22
2023-09-18T09:00:40.567Z,46.02
2023-09-18T09:01:40.558Z,45.55
2023-09-18T09:02:40.614Z,45.95
2023-09-18T09:03:40.604Z,45.97
2023-09-18T09:04:40.613Z,46.38
2023-09-18T09:05:40.554Z,47.78
2023-09-18T09:06:40.477Z,46.90
2023-09-18T09:07:40.492Z,47.58
2023-09-18T09:08:40.526Z,47.47
2023-09-18T09:09:40.444Z,47.66
2023-09-18T09:10:40.451Z,47.64
2023-09-18T09:11:40.465Z,47.83
2023-09-18T09:12:40.449Z,48.23
2023-09-18T09:13:46.211Z,47.17
2023-09-18T09:14:41.466Z,47.86
2023-09-18T09:15:40.387Z,49.04
2023-09-18T09:16:40.350Z,47.29
2023-09-18T09:17:40.429Z,47.78
2023-09-18T09:18:40.327Z,47.19
2023-09-18T09:19:40.312Z,48.20
2023-09-18T09:20:40.400Z,48.69
2023-09-18T09:21:40.320Z,48.22
2023-09-18T09:22:40.292Z,48.61
2023-09-18T09:23:40.321Z,47.66
2023-09-18T09:24:40.284Z,47.95
2023-09-18T09:25:40.235Z,48.57
2023-09-18T09:26:40.330Z,48.57
2023-09-18T09:27:40.218Z,48.19
2023-09-18T09:28:40.216Z,48.71
2023-09-18T09:29:40.250Z,49.10
2023-09-18T09:30:40.188Z,50.21
2023-09-18T09:31:40.272Z,50.51
2023-09-18T09:32:40.252Z,49.94
2023-09-18T09:33:40.153Z,50.95
2023-09-18T09:34:40.113Z,51.45
2023-09-18T09:35:40.164Z,51.37
2023-09-18T09:36:40.152Z,51.70
2023-09-18T09:37:40.087Z,51.70
2023-09-18T09:38:40.121Z,52.61
2023-09-18T09:39:40.166Z,52.41
2023-09-18T09:40:40.042Z,52.73
2023-09-18T09:41:40.075Z,52.93
2023-09-18T09:42:40.029Z,53.33
2023-09-18T09:43:40.015Z,54.05
2023-09-18T09:44:40.005Z,54.24
2023-09-18T09:45:40.013Z,54.37
2023-09-18T09:46:40.019Z,54.47
2023-09-18T09:47:39.990Z,54.17
2023-09-18T09:48:39.956Z,54.67
2023-09-18T09:49:39.923Z,54.47
2023-09-18T09:50:39.961Z,54.39
2023-09-18T09:51:39.916Z,55.29
2023-09-18T09:52:39.891Z,54.79
2023-09-18T09:53:39.926Z,55.29
2023-09-18T09:54:39.865Z,55.78
2023-09-18T09:55:39.901Z,56.08
2023-09-18T09:56:39.864Z,56.18
2023-09-18T09:57:39.817Z,55.78
2023-09-18T09:58:39.798Z,55.49
2023-09-18T09:59:39.862Z,55.39
2023-09-18T10:00:39.818Z,55.49
2023-09-18T10:01:39.760Z,55.58
2023-09-18T10:02:39.809Z,56.28
2023-09-18T10:03:39.817Z,56.08
2023-09-18T10:04:39.753Z,56.55
2023-09-18T10:05:39.761Z,55.66
2023-09-18T10:06:39.734Z,56.05
2023-09-18T10:07:39.713Z,55.66
2023-09-18T10:08:39.751Z,55.76
2023-09-18T10:09:39.682Z,55.85
2023-09-18T10:10:39.654Z,55.76
2023-09-18T10:11:39.714Z,55.73
2023-09-18T10:12:39.629Z,55.83
2023-09-18T10:13:39.632Z,54.84
2023-09-18T10:14:55.120Z,54.81
2023-09-18T10:15:40.589Z,55.11
2023-09-18T10:16:39.587Z,55.18
2023-09-18T10:17:39.694Z,54.29
2023-09-18T10:18:39.631Z,53.38
2023-09-18T10:19:39.539Z,53.57
2023-09-18T10:20:39.590Z,54.56
2023-09-18T10:21:39.518Z,54.76
2023-09-18T10:22:39.518Z,54.06
2023-09-18T10:23:41.400Z,53.57
2023-09-18T10:24:39.491Z,53.47
2023-09-18T10:25:39.461Z,53.18
2023-09-18T10:26:39.561Z,53.38
2023-09-18T10:27:39.496Z,53.97
2023-09-18T10:28:39.417Z,53.64
2023-09-18T10:29:39.440Z,54.24
2023-09-18T10:30:39.431Z,53.75
2023-09-18T10:31:39.379Z,53.15
2023-09-18T10:32:39.427Z,53.75
2023-09-18T10:33:39.354Z,53.55
2023-09-18T10:34:39.400Z,53.45
2023-09-18T10:35:39.400Z,53.25
2023-09-18T10:36:39.369Z,53.94
2023-09-18T10:37:39.311Z,54.53
2023-09-18T10:38:39.346Z,54.24
2023-09-18T10:39:39.293Z,55.03
2023-09-18T10:40:39.272Z,54.71
2023-09-18T10:41:39.403Z,54.51
2023-09-18T10:42:39.265Z,54.51
2023-09-18T10:43:39.233Z,53.00
2023-09-18T10:44:39.253Z,52.70
2023-09-18T10:45:39.199Z,52.68
2023-09-18T10:46:39.223Z,53.37
2023-09-18T10:47:39.215Z,52.36
2023-09-18T10:48:40.738Z,51.77
2023-09-18T10:49:39.180Z,51.28
2023-09-18T10:50:39.177Z,51.37
2023-09-18T10:51:39.160Z,51.07
2023-09-18T10:52:39.113Z,52.23
2023-09-18T10:53:39.136Z,52.43
2023-09-18T10:54:39.092Z,52.43
2023-09-18T10:55:39.093Z,51.94
2023-09-18T10:56:39.111Z,52.40
2023-09-18T10:57:39.073Z,53.27
2023-09-18T10:58:39.064Z,52.28
2023-09-18T10:59:39.053Z,49.99
2023-09-18T11:00:39.034Z,49.30
2023-09-18T11:01:39.005Z,50.29
2023-09-18T11:02:39.196Z,50.98
2023-09-18T11:03:39.225Z,50.19
2023-09-18T11:04:38.975Z,49.70
2023-09-18T11:05:38.992Z,50.09
2023-09-18T11:06:38.946Z,50.39
2023-09-18T11:07:38.908Z,50.21
2023-09-18T11:08:38.984Z,50.81
2023-09-18T11:09:38.890Z,50.61
2023-09-18T11:10:38.884Z,50.51
2023-09-18T11:11:38.978Z,50.51
2023-09-18T11:12:38.855Z,50.71
2023-09-18T11:13:38.840Z,52.09
2023-09-18T11:14:38.931Z,50.31
2023-09-18T11:15:38.806Z,50.21
2023-09-18T11:16:38.809Z,50.61
2023-09-18T11:17:38.950Z,50.90
2023-09-18T11:18:38.809Z,51.00
2023-09-18T11:19:38.780Z,50.78
2023-09-18T11:20:38.783Z,50.98
2023-09-18T11:21:38.738Z,50.39
2023-09-18T11:22:39.203Z,50.09
2023-09-18T11:23:38.746Z,50.39
2023-09-18T11:24:38.701Z,49.90
2023-09-18T11:25:38.886Z,50.29
2023-09-18T11:26:38.777Z,49.99
2023-09-18T11:27:38.670Z,50.39
2023-09-18T11:28:38.688Z,50.29
2023-09-18T11:29:38.680Z,49.50
2023-09-18T11:30:38.664Z,50.19
2023-09-18T11:31:38.663Z,50.51
2023-09-18T11:32:38.678Z,50.42
2023-09-18T11:33:38.658Z,49.92
2023-09-18T11:34:38.562Z,50.61
2023-09-18T11:35:38.611Z,50.31
2023-09-18T11:36:38.530Z,49.73
2023-09-18T11:37:38.532Z,50.31
2023-09-18T11:38:38.548Z,49.73
2023-09-18T11:39:38.768Z,49.73
2023-09-18T11:40:38.529Z,50.14
2023-09-18T11:41:38.489Z,49.95
2023-09-18T11:42:38.506Z,49.75
2023-09-18T11:43:38.443Z,49.75
2023-09-18T11:44:38.541Z,49.55
2023-09-18T11:45:38.442Z,49.55
2023-09-18T11:46:38.448Z,50.44
2023-09-18T11:47:38.455Z,49.75
2023-09-18T11:48:38.436Z,49.97
2023-09-18T11:49:38.369Z,50.07
2023-09-18T11:50:38.361Z,50.76
2023-09-18T11:51:38.347Z,50.36
2023-09-18T11:52:38.349Z,50.26
2023-09-18T11:53:38.386Z,50.76
2023-09-18T11:54:38.295Z,50.66
2023-09-18T11:55:38.292Z,51.54
2023-09-18T11:56:38.318Z,51.15
2023-09-18T11:57:38.317Z,50.98
2023-09-18T11:58:38.241Z,50.98
2023-09-18T11:59:38.280Z,51.37
2023-09-18T12:00:38.229Z,51.07
2023-09-18T12:01:38.393Z,50.78
2023-09-18T12:02:38.271Z,51.20
2023-09-18T12:03:38.224Z,51.79
2023-09-18T12:04:38.205Z,51.89
2023-09-18T12:05:38.205Z,51.99
2023-09-18T12:06:38.133Z,52.11
2023-09-18T12:07:38.171Z,52.51
2023-09-18T12:08:38.162Z,53.10
2023-09-18T12:09:38.120Z,52.83
2023-09-18T12:10:38.116Z,53.62
2023-09-18T12:11:38.129Z,53.33
2023-09-18T12:12:38.100Z,53.42
2023-09-18T12:13:38.042Z,53.55
2023-09-18T12:14:38.074Z,54.14
2023-09-18T12:15:38.026Z,54.44
2023-09-18T12:16:38.075Z,53.94
2023-09-18T12:17:38.054Z,53.77
2023-09-18T12:18:38.043Z,54.46
2023-09-18T12:19:38.061Z,53.57
2023-09-18T12:20:41.621Z,54.96
2023-09-18T12:21:37.958Z,55.87
2023-09-18T12:22:37.988Z,55.28
2023-09-18T12:23:37.968Z,55.47
2023-09-18T12:24:37.921Z,56.17
2023-09-18T12:25:37.915Z,56.00
2023-09-18T12:26:37.932Z,56.00
2023-09-18T12:27:37.883Z,56.59
2023-09-18T12:28:37.879Z,56.99
2023-09-18T12:29:37.932Z,56.82
2023-09-18T12:30:37.846Z,56.82
2023-09-18T12:31:37.849Z,56.82
2023-09-18T12:32:38.305Z,56.62
2023-09-18T12:33:38.006Z,57.02
2023-09-18T12:34:37.783Z,57.14
2023-09-18T12:35:37.809Z,57.64
2023-09-18T12:36:37.739Z,57.64
2023-09-18T12:37:37.732Z,57.84
2023-09-18T12:38:37.890Z,57.74
2023-09-18T12:39:37.710Z,58.23
2023-09-18T12:40:37.693Z,58.53
2023-09-18T12:41:37.732Z,59.03
2023-09-18T12:42:37.682Z,58.53
2023-09-18T12:43:37.692Z,58.92
2023-09-18T12:44:37.683Z,59.22
2023-09-18T12:45:37.713Z,59.32
2023-09-18T12:46:37.635Z,59.72
2023-09-18T12:47:37.682Z,59.69
2023-09-18T12:48:37.617Z,60.08
2023-09-18T12:49:37.582Z,59.79
2023-09-18T12:50:37.580Z,58.50
2023-09-18T12:51:37.584Z,58.80
2023-09-18T12:52:37.548Z,60.08